createdAt,value
2017-08-22T00:01:39.188Z,5.77
2017-08-22T00:03:40.130Z,6.03
2017-08-22T00:05:41.076Z,5.23
2017-08-22T00:07:42.040Z,6.10
2017-08-22T00:09:43.004Z,5.67
2017-08-22T00:11:43.956Z,6.37
2017-08-22T00:13:44.900Z,6.90
2017-08-22T00:15:45.832Z,6.00
2017-08-22T00:17:46.768Z,6.57
2017-08-22T00:19:47.708Z,6.53
2017-08-22T00:21:48.648Z,6.20
2017-08-22T00:23:49.596Z,6.27
2017-08-22T00:25:50.540Z,5.53
2017-08-22T00:27:51.492Z,5.50
2017-08-22T00:29:52.436Z,5.57
2017-08-22T00:31:53.392Z,5.30
2017-08-22T00:33:54.340Z,5.77
2017-08-22T00:35:55.308Z,5.80
2017-08-22T00:37:56.265Z,4.77
2017-08-22T00:39:57.212Z,5.17
2017-08-22T00:41:58.220Z,4.53
2017-08-22T00:43:59.181Z,4.60
2017-08-22T00:46:00.126Z,5.50
2017-08-22T00:48:01.084Z,5.60
2017-08-22T00:50:02.024Z,4.80
2017-08-22T00:52:02.965Z,4.87
2017-08-22T00:54:03.916Z,5.17
2017-08-22T00:56:04.870Z,5.87
2017-08-22T00:58:05.832Z,5.23
2017-08-22T01:00:06.772Z,5.10
2017-08-22T01:02:07.705Z,5.17
2017-08-22T01:04:08.677Z,4.50
2017-08-22T01:06:09.715Z,4.40
2017-08-22T01:08:10.928Z,5.00
2017-08-22T01:10:11.896Z,4.73
2017-08-22T01:12:12.861Z,5.10
2017-08-22T01:14:13.852Z,5.20
2017-08-22T01:16:14.793Z,6.57
2017-08-22T01:18:15.741Z,6.20
2017-08-22T01:20:16.707Z,5.93
2017-08-22T01:22:17.651Z,5.67
2017-08-22T01:24:18.609Z,6.30
2017-08-22T01:26:19.558Z,5.57
2017-08-22T01:28:20.504Z,5.47
2017-08-22T01:30:21.452Z,6.10
2017-08-22T01:32:22.408Z,5.30
2017-08-22T01:34:23.356Z,6.10
2017-08-22T01:36:24.302Z,5.77
2017-08-22T01:38:25.284Z,5.03
2017-08-22T01:40:26.445Z,5.20
2017-08-22T01:42:27.396Z,5.10
2017-08-22T01:44:28.351Z,4.57
2017-08-22T01:48:37.148Z,5.23
2017-08-22T01:50:38.096Z,5.30
2017-08-22T01:52:39.047Z,5.10
2017-08-22T01:54:39.988Z,5.80
2017-08-22T01:56:40.929Z,5.80
2017-08-22T01:58:41.860Z,5.63
2017-08-22T02:00:42.827Z,5.93
2017-08-22T02:02:43.768Z,6.23
2017-08-22T02:04:44.732Z,6.10
2017-08-22T02:06:45.705Z,6.73
2017-08-22T02:08:46.643Z,5.77
2017-08-22T02:10:47.584Z,6.53
2017-08-22T02:12:48.512Z,6.23
2017-08-22T02:14:49.449Z,6.60
2017-08-22T02:16:50.408Z,6.60
2017-08-22T02:18:51.365Z,6.87
2017-08-22T02:20:52.308Z,6.40
2017-08-22T02:22:53.255Z,6.90
2017-08-22T02:24:54.220Z,7.10
2017-08-22T02:26:55.161Z,6.27
2017-08-22T02:28:56.096Z,6.23
2017-08-22T02:30:57.036Z,6.53
2017-08-22T02:32:57.972Z,5.73
2017-08-22T02:34:58.916Z,6.07
2017-08-22T02:36:59.840Z,5.73
2017-08-22T02:39:00.877Z,5.90
2017-08-22T02:41:01.832Z,5.90
2017-08-22T02:43:02.769Z,6.80
2017-08-22T02:45:03.745Z,7.27
2017-08-22T02:47:04.684Z,6.32
2017-08-22T02:49:05.634Z,6.40
2017-08-22T02:51:06.588Z,6.30
2017-08-22T02:53:07.531Z,6.63
2017-08-22T02:55:08.485Z,5.90
2017-08-22T02:57:09.429Z,6.47
2017-08-22T02:59:10.372Z,6.47
2017-08-22T03:01:11.340Z,6.40
2017-08-22T03:03:12.288Z,6.77
2017-08-22T03:05:13.236Z,5.40
2017-08-22T03:07:14.188Z,6.30
2017-08-22T03:09:15.136Z,6.15
2017-08-22T03:11:16.108Z,7.23
2017-08-22T03:13:17.069Z,5.93
2017-08-22T03:15:18.010Z,6.50
2017-08-22T03:17:18.984Z,6.10
2017-08-22T03:19:19.928Z,6.83
2017-08-22T03:21:20.860Z,6.47
2017-08-22T03:23:21.800Z,6.57
2017-08-22T03:25:22.752Z,6.73
2017-08-22T03:27:23.709Z,6.10
2017-08-22T03:31:32.204Z,5.83
2017-08-22T03:33:33.184Z,6.10
2017-08-22T03:35:34.138Z,5.63
2017-08-22T03:37:35.076Z,6.30
2017-08-22T03:39:36.011Z,6.07
2017-08-22T03:41:36.961Z,6.30
2017-08-22T03:43:37.904Z,5.97
2017-08-22T03:45:38.840Z,6.60
2017-08-22T03:47:39.800Z,6.53
2017-08-22T03:49:40.744Z,6.40
2017-08-22T03:51:41.693Z,6.50
2017-08-22T03:53:42.652Z,6.70
2017-08-22T03:55:43.604Z,6.50
2017-08-22T03:57:44.544Z,6.37
2017-08-22T03:59:45.477Z,5.10
2017-08-22T04:01:46.409Z,5.97
2017-08-22T04:03:47.344Z,6.17
2017-08-22T04:05:48.283Z,6.30
2017-08-22T04:07:49.269Z,6.50
2017-08-22T04:09:50.204Z,5.90
2017-08-22T04:11:51.157Z,5.83
2017-08-22T04:13:52.101Z,5.70
2017-08-22T04:15:53.037Z,6.00
2017-08-22T04:17:53.982Z,7.20
2017-08-22T04:19:54.919Z,7.40
2017-08-22T04:21:55.856Z,6.77
2017-08-22T04:23:56.793Z,6.77
2017-08-22T04:25:57.732Z,6.97
2017-08-22T04:27:58.673Z,7.17
2017-08-22T04:29:59.608Z,6.23
2017-08-22T04:32:00.564Z,5.93
2017-08-22T04:34:01.504Z,5.80
2017-08-22T04:36:02.465Z,6.27
2017-08-22T04:38:03.412Z,5.63
2017-08-22T04:40:04.367Z,6.90
2017-08-22T04:42:05.323Z,7.03
2017-08-22T04:44:06.256Z,6.57
2017-08-22T04:46:07.213Z,7.17
2017-08-22T04:48:08.157Z,6.60
2017-08-22T04:50:09.103Z,6.67
2017-08-22T04:52:10.051Z,7.63
2017-08-22T04:54:10.990Z,7.03
2017-08-22T04:56:11.941Z,5.93
2017-08-22T04:58:12.888Z,6.37
2017-08-22T05:00:13.828Z,6.80
2017-08-22T05:02:14.777Z,6.90
2017-08-22T05:04:15.728Z,6.90
2017-08-22T05:06:16.680Z,7.23
2017-08-22T05:08:17.616Z,6.73
2017-08-22T05:10:18.552Z,6.87
2017-08-22T05:12:19.504Z,6.40
2017-08-22T05:14:20.445Z,6.43
2017-08-22T05:16:21.396Z,6.20
2017-08-22T05:18:22.424Z,6.90
2017-08-22T05:20:23.376Z,6.30
2017-08-22T05:22:24.339Z,7.10
2017-08-22T05:24:25.283Z,6.60
2017-08-22T05:26:26.232Z,6.60
2017-08-22T05:28:27.169Z,7.37
2017-08-22T05:30:28.108Z,6.70
2017-08-22T05:32:29.045Z,6.90
2017-08-22T05:34:29.989Z,6.30
2017-08-22T05:36:30.940Z,6.63
2017-08-22T05:38:32.644Z,7.37
2017-08-22T05:40:33.580Z,6.43
2017-08-22T05:42:34.516Z,6.50
2017-08-22T05:44:35.717Z,7.50
2017-08-22T05:46:36.664Z,7.47
2017-08-22T05:48:37.604Z,8.30
2017-08-22T05:50:38.531Z,8.17
2017-08-22T05:52:39.506Z,7.97
2017-08-22T05:54:40.460Z,8.50
2017-08-22T05:56:41.417Z,8.70
2017-08-22T05:58:42.357Z,8.57
2017-08-22T06:00:43.298Z,8.23
2017-08-22T06:02:44.232Z,8.30
2017-08-22T06:04:45.176Z,8.00
2017-08-22T06:06:46.130Z,8.07
2017-08-22T06:08:47.064Z,8.43
2017-08-22T06:10:48.014Z,8.87
2017-08-22T06:12:48.957Z,9.70
2017-08-22T06:14:49.877Z,9.40
2017-08-22T06:16:50.968Z,9.43
2017-08-22T06:18:51.897Z,11.33
2017-08-22T06:20:52.828Z,10.57
2017-08-22T06:22:53.768Z,12.47
2017-08-22T06:24:54.700Z,12.30
2017-08-22T06:26:55.628Z,11.50
2017-08-22T06:28:56.573Z,11.33
2017-08-22T06:30:57.505Z,12.60
2017-08-22T06:32:58.442Z,12.80
2017-08-22T06:34:59.376Z,13.37
2017-08-22T06:37:00.313Z,13.17
2017-08-22T06:39:01.253Z,12.30
2017-08-22T06:41:02.176Z,13.57
2017-08-22T06:43:03.128Z,12.77
2017-08-22T06:45:04.053Z,13.50
2017-08-22T06:47:04.988Z,13.07
2017-08-22T06:49:06.116Z,14.10
2017-08-22T06:51:07.058Z,13.13
2017-08-22T06:53:07.992Z,14.33
2017-08-22T06:55:08.925Z,13.80
2017-08-22T06:57:09.858Z,14.23
2017-08-22T06:59:10.793Z,14.40
2017-08-22T07:01:11.728Z,13.63
2017-08-22T07:03:12.656Z,14.80
2017-08-22T07:05:13.630Z,12.30
2017-08-22T07:07:14.561Z,14.00
2017-08-22T07:09:15.488Z,13.57
2017-08-22T07:11:16.412Z,13.93
2017-08-22T07:13:17.341Z,11.77
2017-08-22T07:15:18.271Z,12.40
2017-08-22T07:17:19.195Z,11.40
2017-08-22T07:19:20.138Z,11.90
2017-08-22T07:21:21.276Z,12.10
2017-08-22T07:23:22.205Z,11.40
2017-08-22T07:25:23.141Z,11.27
2017-08-22T07:27:24.077Z,11.43
2017-08-22T07:29:24.995Z,11.90
2017-08-22T07:31:25.928Z,11.60
2017-08-22T07:33:26.848Z,11.40
2017-08-22T07:35:27.778Z,12.10
2017-08-22T07:37:28.712Z,11.40
2017-08-22T07:39:29.671Z,10.80
2017-08-22T07:41:30.616Z,11.00
2017-08-22T07:43:31.544Z,12.50
2017-08-22T07:45:32.492Z,11.83
2017-08-22T07:47:33.416Z,11.23
2017-08-22T07:51:44.933Z,10.88
2017-08-22T07:53:45.876Z,11.10
2017-08-22T07:55:46.814Z,12.10
2017-08-22T07:57:47.764Z,8.73
2017-08-22T07:59:48.913Z,6.50
2017-08-22T08:01:50.880Z,6.60
2017-08-22T08:03:51.820Z,8.87
2017-08-22T08:05:52.762Z,7.97
2017-08-22T08:07:53.688Z,9.33
2017-08-22T08:09:54.611Z,8.03
2017-08-22T08:11:55.550Z,8.87
2017-08-22T08:13:56.497Z,9.73
2017-08-22T08:15:57.528Z,7.70
2017-08-22T08:17:58.468Z,7.17
2017-08-22T08:19:59.409Z,8.07
2017-08-22T08:22:00.349Z,7.70
2017-08-22T08:24:01.285Z,7.00
2017-08-22T08:26:02.289Z,5.20
2017-08-22T08:28:03.230Z,4.30
2017-08-22T08:30:04.159Z,4.50
2017-08-22T08:32:05.093Z,4.50
2017-08-22T08:34:06.016Z,5.03
2017-08-22T08:36:06.948Z,4.23
2017-08-22T08:38:07.880Z,4.17
2017-08-22T08:40:08.809Z,4.80
2017-08-22T08:42:09.732Z,4.50
2017-08-22T08:44:10.668Z,5.27
2017-08-22T08:46:11.596Z,4.70
2017-08-22T08:48:12.765Z,4.10
2017-08-22T08:50:13.696Z,3.63
2017-08-22T08:52:14.640Z,3.27
2017-08-22T08:54:15.573Z,3.50
2017-08-22T08:56:16.497Z,3.53
2017-08-22T08:58:17.436Z,3.60
2017-08-22T09:00:18.377Z,2.80
2017-08-22T09:02:19.305Z,3.37
2017-08-22T09:04:20.248Z,3.20
2017-08-22T09:06:21.180Z,3.30
2017-08-22T09:08:22.103Z,2.83
2017-08-22T09:10:23.024Z,2.80
2017-08-22T09:12:23.948Z,2.50
2017-08-22T09:14:24.884Z,3.17
2017-08-22T09:16:25.800Z,2.90
2017-08-22T09:18:26.745Z,2.47
2017-08-22T09:20:27.677Z,2.10
2017-08-22T09:22:28.607Z,2.17
2017-08-22T09:24:29.544Z,2.93
2017-08-22T09:26:30.473Z,2.50
2017-08-22T09:28:31.396Z,2.83
2017-08-22T09:30:32.352Z,2.80
2017-08-22T09:32:33.285Z,1.67
2017-08-22T09:34:34.225Z,2.60
2017-08-22T09:36:35.156Z,3.03
2017-08-22T09:38:36.081Z,2.03
2017-08-22T09:40:37.012Z,2.27
2017-08-22T09:42:37.940Z,2.07
2017-08-22T09:44:38.870Z,2.90
2017-08-22T09:46:39.796Z,2.23
2017-08-22T09:48:40.725Z,1.93
2017-08-22T09:50:41.652Z,2.20
2017-08-22T09:52:42.592Z,2.00
2017-08-22T09:54:43.525Z,2.17
2017-08-22T09:56:44.472Z,2.33
2017-08-22T09:58:45.413Z,1.97
2017-08-22T10:00:46.349Z,1.93
2017-08-22T10:02:47.277Z,2.10
2017-08-22T10:04:48.212Z,2.30
2017-08-22T10:06:49.148Z,2.00
2017-08-22T10:08:50.101Z,2.10
2017-08-22T10:10:51.036Z,1.93
2017-08-22T10:12:51.964Z,2.17
2017-08-22T10:14:52.893Z,2.40
2017-08-22T10:16:53.824Z,1.80
2017-08-22T10:18:54.752Z,1.73
2017-08-22T10:20:55.704Z,2.30
2017-08-22T10:22:56.637Z,2.27
2017-08-22T10:24:57.565Z,1.90
2017-08-22T10:26:58.500Z,1.97
2017-08-22T10:28:59.424Z,2.63
2017-08-22T10:31:00.365Z,2.37
2017-08-22T10:33:01.297Z,2.23
2017-08-22T10:35:02.228Z,2.17
2017-08-22T10:37:03.178Z,2.23
2017-08-22T10:39:04.113Z,2.43
2017-08-22T10:41:05.316Z,2.07
2017-08-22T10:43:06.240Z,2.33
2017-08-22T10:45:07.165Z,2.03
2017-08-22T10:47:08.109Z,1.90
2017-08-22T10:49:09.033Z,2.20
2017-08-22T10:51:09.968Z,2.00
2017-08-22T10:53:10.904Z,2.00
2017-08-22T10:55:11.857Z,2.10
2017-08-22T10:57:12.832Z,2.40
2017-08-22T10:59:13.765Z,1.80
2017-08-22T11:01:14.701Z,2.17
2017-08-22T11:03:15.636Z,2.60
2017-08-22T11:05:16.563Z,2.10
2017-08-22T11:07:17.501Z,2.00
2017-08-22T11:09:18.428Z,1.30
2017-08-22T11:11:19.370Z,2.40
2017-08-22T11:13:20.417Z,2.50
2017-08-22T11:15:21.336Z,2.00
2017-08-22T11:17:22.276Z,2.23
2017-08-22T11:19:23.216Z,2.03
2017-08-22T11:21:24.148Z,2.17
2017-08-22T11:23:25.084Z,2.23
2017-08-22T11:25:26.008Z,2.43
2017-08-22T11:27:26.946Z,2.30
2017-08-22T11:29:27.889Z,2.50
2017-08-22T11:31:28.827Z,3.42
2017-08-22T11:33:29.769Z,2.70
2017-08-22T11:35:30.692Z,2.80
2017-08-22T11:37:31.629Z,2.67
2017-08-22T11:39:32.568Z,2.90
2017-08-22T11:41:33.496Z,2.70
2017-08-22T11:43:34.424Z,2.57
2017-08-22T11:45:35.619Z,3.87
2017-08-22T11:47:36.552Z,3.30
2017-08-22T11:49:37.481Z,2.77
2017-08-22T11:51:38.400Z,2.93
2017-08-22T11:53:39.344Z,2.30
2017-08-22T11:55:40.268Z,3.20
2017-08-22T11:57:41.205Z,3.27
2017-08-22T11:59:42.136Z,2.43
2017-08-22T12:01:43.089Z,2.93
2017-08-22T12:03:44.041Z,2.67
2017-08-22T12:05:44.965Z,2.57
2017-08-22T12:07:45.901Z,2.50
2017-08-22T12:09:46.842Z,2.60
2017-08-22T12:11:47.786Z,2.60
2017-08-22T12:13:48.740Z,2.30
2017-08-22T12:15:49.675Z,2.80
2017-08-22T12:17:50.740Z,2.60
2017-08-22T12:19:51.684Z,2.60
2017-08-22T12:21:52.640Z,2.60
2017-08-22T12:23:53.588Z,2.67
2017-08-22T12:25:54.528Z,2.90
2017-08-22T12:27:55.449Z,2.27
2017-08-22T12:29:56.396Z,2.33
2017-08-22T12:31:57.329Z,2.57
2017-08-22T12:33:58.261Z,2.60
2017-08-22T12:35:59.192Z,2.90
2017-08-22T12:38:00.138Z,2.63
2017-08-22T12:40:01.073Z,2.30
2017-08-22T12:42:02.001Z,2.70
2017-08-22T12:44:02.944Z,2.73
2017-08-22T12:46:03.885Z,2.53
2017-08-22T12:48:04.817Z,2.53
2017-08-22T12:50:05.758Z,2.70
2017-08-22T12:52:06.692Z,2.60
2017-08-22T12:54:07.625Z,2.67
2017-08-22T12:56:08.560Z,3.77
2017-08-22T12:58:09.501Z,2.77
2017-08-22T13:00:10.428Z,2.30
2017-08-22T13:02:11.368Z,2.80
2017-08-22T13:04:12.305Z,2.05
2017-08-22T13:06:13.248Z,2.10
2017-08-22T13:08:14.185Z,2.50
2017-08-22T13:10:15.149Z,2.00
2017-08-22T13:12:16.189Z,2.50
2017-08-22T13:14:17.117Z,2.30
2017-08-22T13:16:18.061Z,2.40
2017-08-22T13:18:18.997Z,2.70
2017-08-22T13:20:19.928Z,2.30
2017-08-22T13:22:20.880Z,2.37
2017-08-22T13:24:21.812Z,2.73
2017-08-22T13:26:22.734Z,2.47
2017-08-22T13:28:23.689Z,2.70
2017-08-22T13:30:24.616Z,2.37
2017-08-22T13:32:25.556Z,2.67
2017-08-22T13:34:26.516Z,2.63
2017-08-22T13:36:27.436Z,2.43
2017-08-22T13:38:28.361Z,2.40
2017-08-22T13:40:29.332Z,2.70
2017-08-22T13:42:30.260Z,2.47
2017-08-22T13:44:31.196Z,3.50
2017-08-22T13:46:32.120Z,3.73
2017-08-22T13:48:33.052Z,3.17
2017-08-22T13:50:33.984Z,2.90
2017-08-22T13:52:34.928Z,2.70
2017-08-22T13:54:35.857Z,2.70
2017-08-22T13:56:36.785Z,2.67
2017-08-22T13:58:37.742Z,2.50
2017-08-22T14:00:38.668Z,2.50
2017-08-22T14:02:39.637Z,2.43
2017-08-22T14:04:40.573Z,2.87
2017-08-22T14:06:41.504Z,3.10
2017-08-22T14:08:42.436Z,2.70
2017-08-22T14:10:43.363Z,2.60
2017-08-22T14:12:44.314Z,2.73
2017-08-22T14:14:45.245Z,2.93
2017-08-22T14:16:46.179Z,2.70
2017-08-22T14:18:47.113Z,2.87
2017-08-22T14:20:48.037Z,2.63
2017-08-22T14:22:48.972Z,2.47
2017-08-22T14:24:49.900Z,8.13
2017-08-22T14:26:50.823Z,3.40
2017-08-22T14:28:51.752Z,3.30
2017-08-22T14:30:52.676Z,2.80
2017-08-22T14:32:53.620Z,2.40
2017-08-22T14:34:54.548Z,3.20
2017-08-22T14:36:55.486Z,2.53
2017-08-22T14:38:56.420Z,3.37
2017-08-22T14:40:57.358Z,3.30
2017-08-22T14:42:58.497Z,3.00
2017-08-22T14:44:59.420Z,3.30
2017-08-22T14:47:00.349Z,3.70
2017-08-22T14:49:01.284Z,3.03
2017-08-22T14:51:02.229Z,3.10
2017-08-22T14:53:03.165Z,3.43
2017-08-22T14:55:04.097Z,3.50
2017-08-22T14:57:05.024Z,3.67
2017-08-22T14:59:05.960Z,2.83
2017-08-22T15:01:06.901Z,2.93
2017-08-22T15:03:07.832Z,3.27
2017-08-22T15:05:08.768Z,3.53
2017-08-22T15:07:09.700Z,3.50
2017-08-22T15:09:10.644Z,3.20
2017-08-22T15:11:11.573Z,3.50
2017-08-22T15:13:12.513Z,3.70
2017-08-22T15:15:13.449Z,3.50
2017-08-22T15:17:14.376Z,4.10
2017-08-22T15:19:15.308Z,3.90
2017-08-22T15:21:16.236Z,4.13
2017-08-22T15:23:17.168Z,3.50
2017-08-22T15:25:18.093Z,4.03
2017-08-22T15:27:19.040Z,3.70
2017-08-22T15:29:19.972Z,3.60
2017-08-22T15:31:20.900Z,3.90
2017-08-22T15:33:21.844Z,3.77
2017-08-22T15:35:22.777Z,3.30
2017-08-22T15:37:23.713Z,2.80
2017-08-22T15:39:24.669Z,3.87
2017-08-22T15:41:25.609Z,3.80
2017-08-22T15:43:26.562Z,3.43
2017-08-22T15:45:27.500Z,3.77
2017-08-22T15:47:28.428Z,3.53
2017-08-22T15:49:29.368Z,3.17
2017-08-22T15:51:30.316Z,4.07
2017-08-22T15:53:31.277Z,3.10
2017-08-22T15:55:32.204Z,3.33
2017-08-22T15:57:33.132Z,5.33
2017-08-22T15:59:34.113Z,3.90
2017-08-22T16:01:35.036Z,3.67
2017-08-22T16:03:35.968Z,3.40
2017-08-22T16:05:36.907Z,2.70
2017-08-22T16:07:37.848Z,3.50
2017-08-22T16:09:38.792Z,3.10
2017-08-22T16:11:39.717Z,2.70
2017-08-22T16:13:40.681Z,3.10
2017-08-22T16:15:41.611Z,3.53
2017-08-22T16:17:42.537Z,3.17
2017-08-22T16:19:43.468Z,2.93
2017-08-22T16:21:44.409Z,3.10
2017-08-22T16:23:45.365Z,3.03
2017-08-22T16:25:46.325Z,3.00
2017-08-22T16:27:47.284Z,3.20
2017-08-22T16:29:48.234Z,2.77
2017-08-22T16:31:49.167Z,3.57
2017-08-22T16:33:50.103Z,3.20
2017-08-22T16:35:51.124Z,2.70
2017-08-22T16:37:52.060Z,3.43
2017-08-22T16:39:53.002Z,2.80
2017-08-22T16:41:53.963Z,2.83
2017-08-22T16:44:24.228Z,2.77
2017-08-22T16:46:25.172Z,3.23
2017-08-22T16:48:26.092Z,3.50
2017-08-22T16:50:27.016Z,3.33
2017-08-22T16:52:27.954Z,3.40
2017-08-22T16:54:28.896Z,3.20
2017-08-22T16:56:30.076Z,3.57
2017-08-22T17:00:43.345Z,3.03
2017-08-22T17:02:44.373Z,3.03
2017-08-22T17:04:46.538Z,2.70
2017-08-22T17:06:47.576Z,3.97
2017-08-22T17:08:48.524Z,3.97
2017-08-22T17:10:49.452Z,3.27
2017-08-22T17:12:50.388Z,3.37
2017-08-22T17:14:51.319Z,3.33
2017-08-22T17:16:52.355Z,3.37
2017-08-22T17:18:53.291Z,2.90
2017-08-22T17:20:54.402Z,4.00
2017-08-22T17:22:55.368Z,3.20
2017-08-22T17:24:56.304Z,3.80
2017-08-22T17:26:57.253Z,2.97
2017-08-22T17:28:58.948Z,3.20
2017-08-22T17:31:00.040Z,3.07
2017-08-22T17:33:00.972Z,3.33
2017-08-22T17:35:01.916Z,3.70
2017-08-22T17:37:02.875Z,3.40
2017-08-22T17:39:03.834Z,3.70
2017-08-22T17:41:04.779Z,3.30
2017-08-22T17:43:05.746Z,2.93
2017-08-22T17:45:06.684Z,3.10
2017-08-22T17:47:07.625Z,3.37
2017-08-22T17:49:08.560Z,3.43
2017-08-22T17:51:09.502Z,3.57
2017-08-22T17:53:10.446Z,3.17
2017-08-22T17:55:11.392Z,3.47
2017-08-22T17:57:12.323Z,2.90
2017-08-22T17:59:13.269Z,2.73
2017-08-22T18:01:14.296Z,3.30
2017-08-22T18:03:15.240Z,3.33
2017-08-22T18:05:16.168Z,3.60
2017-08-22T18:07:17.126Z,3.87
2017-08-22T18:09:18.077Z,3.33
2017-08-22T18:13:26.720Z,3.80
2017-08-22T18:15:27.656Z,3.50
2017-08-22T18:17:28.601Z,3.30
2017-08-22T18:19:29.554Z,4.50
2017-08-22T18:21:30.564Z,3.60
2017-08-22T18:23:38.745Z,4.20
2017-08-22T18:26:06.465Z,3.77
2017-08-22T18:28:07.400Z,9.10
2017-08-22T18:30:08.340Z,17.67
2017-08-22T18:32:09.323Z,16.65
2017-08-22T18:34:10.268Z,15.60
2017-08-22T18:36:11.204Z,9.60
2017-08-22T18:38:12.132Z,8.60
2017-08-22T18:40:13.082Z,6.70
2017-08-22T18:42:14.124Z,5.97
2017-08-22T18:44:15.076Z,5.93
2017-08-22T18:46:16.006Z,6.20
2017-08-22T18:48:17.027Z,7.03
2017-08-22T18:50:17.990Z,9.10
2017-08-22T18:52:19.746Z,7.30
2017-08-22T18:54:20.704Z,6.30
2017-08-22T18:56:21.640Z,5.63
2017-08-22T18:58:22.572Z,5.43
2017-08-22T19:00:23.541Z,5.00
2017-08-22T19:02:24.485Z,4.60
2017-08-22T19:04:25.444Z,5.30
2017-08-22T19:06:26.598Z,5.13
2017-08-22T19:08:27.536Z,5.03
2017-08-22T19:10:28.489Z,4.40
2017-08-22T19:12:29.446Z,4.43
2017-08-22T19:14:30.381Z,6.10
2017-08-22T19:16:31.349Z,4.93
2017-08-22T19:18:32.288Z,5.00
2017-08-22T19:20:33.232Z,4.47
2017-08-22T19:22:34.170Z,4.20
2017-08-22T19:24:35.954Z,4.53
2017-08-22T19:26:36.941Z,4.33
2017-08-22T19:28:37.916Z,4.90
2017-08-22T19:30:39.052Z,4.57
2017-08-22T19:32:40.720Z,4.37
2017-08-22T19:34:41.665Z,5.23
2017-08-22T19:36:42.641Z,5.47
2017-08-22T19:38:43.689Z,5.60
2017-08-22T19:40:44.668Z,5.10
2017-08-22T19:42:45.613Z,5.30
2017-08-22T19:44:46.560Z,4.57
2017-08-22T19:46:47.492Z,5.50
2017-08-22T19:48:48.581Z,5.27
2017-08-22T19:50:49.752Z,4.73
2017-08-22T19:52:50.800Z,5.93
2017-08-22T19:54:51.756Z,6.00
2017-08-22T19:56:52.837Z,5.00
2017-08-22T19:58:53.984Z,4.60
2017-08-22T20:00:54.917Z,5.60
2017-08-22T20:02:55.936Z,5.50
2017-08-22T20:04:56.901Z,5.50
2017-08-22T20:06:57.908Z,5.13
2017-08-22T20:08:58.886Z,5.23
2017-08-22T20:10:59.846Z,5.47
2017-08-22T20:13:00.789Z,4.90
2017-08-22T20:15:01.856Z,5.03
2017-08-22T20:17:02.836Z,5.13
2017-08-22T20:19:03.805Z,4.57
2017-08-22T20:21:04.869Z,5.20
2017-08-22T20:23:06.041Z,4.72
2017-08-22T20:25:06.974Z,5.00
2017-08-22T20:27:07.912Z,4.70
2017-08-22T20:29:08.906Z,4.23
2017-08-22T20:31:09.852Z,5.23
2017-08-22T20:33:10.984Z,4.80
2017-08-22T20:35:11.927Z,4.60
2017-08-22T20:37:12.864Z,4.10
2017-08-22T20:39:13.812Z,4.67
2017-08-22T20:41:14.740Z,4.17
2017-08-22T20:43:15.708Z,4.13
2017-08-22T20:45:16.720Z,4.30
2017-08-22T20:47:17.700Z,4.50
2017-08-22T20:49:18.782Z,4.33
2017-08-22T20:51:19.721Z,4.77
2017-08-22T20:53:20.662Z,4.00
2017-08-22T20:55:21.633Z,5.30
2017-08-22T20:57:22.572Z,4.50
2017-08-22T20:59:23.594Z,4.07
2017-08-22T21:01:24.536Z,3.90
2017-08-22T21:03:25.472Z,4.03
2017-08-22T21:05:26.424Z,5.70
2017-08-22T21:07:27.360Z,4.80
2017-08-22T21:09:28.305Z,3.53
2017-08-22T21:11:29.235Z,4.60
2017-08-22T21:13:30.160Z,4.40
2017-08-22T21:15:31.141Z,3.97
2017-08-22T21:17:32.535Z,5.00
2017-08-22T21:19:33.489Z,4.53
2017-08-22T21:21:34.441Z,4.40
2017-08-22T21:23:35.393Z,5.00
2017-08-22T21:25:36.370Z,4.60
2017-08-22T21:27:37.311Z,4.57
2017-08-22T21:29:38.243Z,4.37
2017-08-22T21:31:39.443Z,5.73
2017-08-22T21:33:40.444Z,4.70
2017-08-22T21:35:41.385Z,5.03
2017-08-22T21:37:49.344Z,5.37
2017-08-22T21:39:50.276Z,4.40
2017-08-22T21:41:51.211Z,3.97
2017-08-22T21:43:52.148Z,4.83
2017-08-22T21:45:53.080Z,4.70
2017-08-22T21:47:54.036Z,4.20
2017-08-22T21:49:54.970Z,4.10
2017-08-22T21:51:55.907Z,4.03
2017-08-22T21:53:56.859Z,4.10
2017-08-22T21:55:57.789Z,4.83
2017-08-22T21:57:58.897Z,4.47
2017-08-22T21:59:59.824Z,5.27
2017-08-22T22:02:00.821Z,5.10
2017-08-22T22:04:01.745Z,4.50
2017-08-22T22:06:02.724Z,4.80
2017-08-22T22:08:03.672Z,4.10
2017-08-22T22:10:04.622Z,4.37
2017-08-22T22:12:05.569Z,5.13
2017-08-22T22:14:06.665Z,4.90
2017-08-22T22:16:07.607Z,6.40
2017-08-22T22:18:08.549Z,5.03
2017-08-22T22:20:09.488Z,5.03
2017-08-22T22:22:10.432Z,5.27
2017-08-22T22:24:11.389Z,4.13
2017-08-22T22:26:12.321Z,3.53
2017-08-22T22:28:13.269Z,3.30
2017-08-22T22:30:14.231Z,3.37
2017-08-22T22:32:15.172Z,4.20
2017-08-22T22:34:16.129Z,4.53
2017-08-22T22:36:17.076Z,4.90
2017-08-22T22:38:18.020Z,5.97
2017-08-22T22:40:18.960Z,6.23
2017-08-22T22:42:19.891Z,6.37
2017-08-22T22:44:20.821Z,7.20
2017-08-22T22:46:21.786Z,6.20
2017-08-22T22:48:22.725Z,5.83
2017-08-22T22:50:23.653Z,6.27
2017-08-22T22:52:24.592Z,7.27
2017-08-22T22:54:25.529Z,6.50
2017-08-22T22:56:26.469Z,7.03
2017-08-22T22:58:27.414Z,5.63
2017-08-22T23:00:28.353Z,4.70
2017-08-22T23:02:29.305Z,6.10
2017-08-22T23:04:30.258Z,5.77
2017-08-22T23:06:31.218Z,5.67
2017-08-22T23:08:32.161Z,4.90
2017-08-22T23:10:33.110Z,5.67
2017-08-22T23:12:34.058Z,4.73
2017-08-22T23:14:34.997Z,5.60
2017-08-22T23:16:35.929Z,5.67
2017-08-22T23:18:36.936Z,5.03
2017-08-22T23:20:37.905Z,5.70
2017-08-22T23:22:38.837Z,5.00
2017-08-22T23:24:39.782Z,6.60
2017-08-22T23:26:40.722Z,5.20
2017-08-22T23:28:41.656Z,6.33
2017-08-22T23:30:42.697Z,6.10
2017-08-22T23:32:43.629Z,5.50
2017-08-22T23:34:44.566Z,5.90
2017-08-22T23:36:45.585Z,4.80
2017-08-22T23:38:46.529Z,4.93
2017-08-22T23:40:47.483Z,5.03
2017-08-22T23:42:54.569Z,5.40
2017-08-22T23:44:55.526Z,5.10
2017-08-22T23:46:56.466Z,5.10
2017-08-22T23:48:57.423Z,5.23
2017-08-22T23:50:58.374Z,4.80
2017-08-22T23:52:59.317Z,5.17
2017-08-22T23:55:00.261Z,5.90
2017-08-22T23:57:01.206Z,4.97
2017-08-22T23:59:02.164Z,5.03
